createdAt,value
2023-04-13T00:02:17.821Z,52.50
2023-04-13T00:07:19.812Z,55.10
2023-04-13T00:12:21.519Z,53.60
2023-04-13T00:17:25.161Z,52.90
2023-04-13T00:22:30.017Z,52.40
2023-04-13T00:27:31.905Z,53.40
2023-04-13T00:32:33.953Z,53.20
2023-04-13T00:37:36.012Z,53.30
2023-04-13T00:42:38.067Z,52.90
2023-04-13T00:47:41.958Z,55.20
2023-04-13T00:52:44.818Z,53.30
2023-04-13T00:57:50.097Z,55.00
2023-04-13T01:02:53.700Z,55.00
2023-04-13T01:07:58.403Z,54.00
2023-04-13T01:13:21.330Z,53.70
2023-04-13T01:18:26.236Z,55.70
2023-04-13T01:23:40.091Z,55.40
2023-04-13T01:28:42.827Z,54.90
2023-04-13T01:33:45.348Z,54.30
2023-04-13T01:38:47.297Z,55.90
2023-04-13T01:43:49.085Z,56.40
2023-04-13T01:48:56.305Z,56.50
2023-04-13T01:54:04.678Z,57.30
2023-04-13T01:59:07.377Z,58.10
2023-04-13T02:04:10.036Z,58.80
2023-04-13T02:09:11.849Z,59.50
2023-04-13T02:14:13.661Z,60.50
2023-04-13T02:19:15.548Z,61.50
2023-04-13T02:24:17.281Z,61.60
2023-04-13T02:29:19.095Z,62.50
2023-04-13T02:34:20.933Z,63.90
2023-04-13T02:39:22.673Z,63.90
2023-04-13T02:44:24.399Z,65.60
2023-04-13T02:49:26.153Z,66.20
2023-04-13T02:54:28.498Z,66.60
2023-04-13T02:59:30.253Z,66.70
2023-04-13T03:04:32.381Z,67.50
2023-04-13T03:09:34.505Z,68.10
2023-04-13T03:14:37.109Z,68.10
2023-04-13T03:19:39.224Z,70.30
2023-04-13T03:24:41.336Z,68.30
2023-04-13T03:29:43.051Z,69.60
2023-04-13T03:34:44.849Z,70.00
2023-04-13T03:39:46.856Z,71.70
2023-04-13T03:44:48.575Z,71.00
2023-04-13T03:49:50.359Z,70.00
2023-04-13T03:54:52.428Z,70.90
2023-04-13T03:59:54.277Z,72.00
2023-04-13T04:04:56.158Z,72.00
2023-04-13T04:09:57.880Z,71.60
2023-04-13T04:14:59.641Z,71.30
2023-04-13T04:20:01.675Z,71.80
2023-04-13T04:25:04.591Z,69.90
2023-04-13T04:30:07.143Z,70.50
2023-04-13T04:35:12.130Z,69.40
2023-04-13T04:40:14.120Z,68.30
2023-04-13T04:45:16.692Z,69.70
2023-04-13T04:50:18.502Z,68.30
2023-04-13T04:55:20.356Z,68.70
2023-04-13T05:00:22.554Z,69.90
2023-04-13T05:05:27.548Z,69.00
2023-04-13T05:10:30.088Z,70.00
2023-04-13T05:15:31.827Z,66.60
2023-04-13T05:20:34.985Z,65.70
2023-04-13T05:25:37.044Z,63.40
2023-04-13T05:30:38.857Z,63.30
2023-04-13T05:35:41.086Z,61.50
2023-04-13T05:40:42.898Z,61.20
2023-04-13T05:45:44.690Z,60.50
2023-04-13T05:50:46.545Z,59.50
2023-04-13T05:55:48.583Z,59.20
2023-04-13T06:00:50.711Z,58.50
2023-04-13T06:05:52.996Z,58.00
2023-04-13T06:10:54.788Z,57.50
2023-04-13T06:15:57.502Z,56.30
2023-04-13T06:20:59.793Z,57.10
2023-04-13T06:26:03.180Z,56.40
2023-04-13T06:31:07.516Z,56.30
2023-04-13T06:36:09.669Z,55.40
2023-04-13T06:41:11.549Z,55.40
2023-04-13T06:46:14.521Z,54.30
2023-04-13T06:51:16.459Z,53.30
2023-04-13T06:56:18.441Z,53.10
2023-04-13T07:01:20.942Z,52.10
2023-04-13T07:06:23.239Z,50.00
2023-04-13T07:11:27.856Z,49.60
2023-04-13T07:16:29.836Z,49.60
2023-04-13T07:21:33.557Z,49.00
2023-04-13T07:26:35.429Z,49.60
2023-04-13T07:31:37.710Z,48.80
2023-04-13T07:36:41.033Z,49.40
2023-04-13T07:41:42.941Z,48.60
2023-04-13T07:46:44.820Z,48.70
2023-04-13T07:51:46.576Z,48.20
2023-04-13T07:56:48.364Z,48.40
2023-04-13T08:01:50.173Z,48.80
2023-04-13T08:06:52.281Z,48.70
2023-04-13T08:11:54.322Z,49.20
2023-04-13T08:16:56.576Z,49.00
2023-04-13T08:21:59.399Z,49.10
2023-04-13T08:27:01.233Z,49.00
2023-04-13T08:32:03.605Z,48.60
2023-04-13T08:37:05.385Z,48.60
2023-04-13T08:42:07.652Z,47.50
2023-04-13T08:47:10.918Z,47.90
2023-04-13T08:52:15.743Z,47.60
2023-04-13T08:57:21.105Z,47.40
2023-04-13T09:02:28.360Z,47.00
2023-04-13T09:07:32.463Z,46.80
2023-04-13T09:12:35.012Z,47.20
2023-04-13T09:17:37.582Z,47.60
2023-04-13T09:22:39.410Z,47.40
2023-04-13T09:27:41.118Z,47.10
2023-04-13T09:32:42.855Z,46.50
2023-04-13T09:37:44.834Z,47.40
2023-04-13T09:42:58.836Z,46.70
2023-04-13T09:48:03.165Z,46.80
2023-04-13T09:53:06.468Z,46.20
2023-04-13T09:58:12.845Z,46.70
2023-04-13T10:03:16.372Z,46.20
2023-04-13T10:08:27.314Z,46.30
2023-04-13T10:13:45.874Z,44.60
2023-04-13T10:18:57.924Z,44.50
2023-04-13T10:24:00.451Z,43.80
2023-04-13T10:29:03.714Z,43.90
2023-04-13T10:34:07.019Z,44.10
2023-04-13T10:39:11.858Z,43.70
2023-04-13T10:44:13.603Z,42.40
2023-04-13T10:49:15.723Z,42.20
2023-04-13T10:54:17.588Z,42.20
2023-04-13T10:59:19.331Z,38.10
2023-04-13T11:04:22.870Z,37.40
2023-04-13T11:09:24.680Z,36.10
2023-04-13T11:14:26.408Z,37.60
2023-04-13T11:19:28.238Z,38.30
2023-04-13T11:24:34.369Z,39.50
2023-04-13T11:29:36.143Z,39.90
2023-04-13T11:34:37.920Z,39.30
2023-04-13T11:39:41.829Z,39.90
2023-04-13T11:44:45.811Z,39.20
2023-04-13T11:49:47.884Z,38.90
2023-04-13T11:54:51.013Z,38.00
2023-04-13T11:59:53.039Z,40.60
2023-04-13T12:04:55.959Z,39.40
2023-04-13T12:10:00.937Z,38.60
2023-04-13T12:20:16.470Z,39.50
2023-04-13T12:25:24.527Z,40.20
2023-04-13T12:30:27.823Z,41.10
2023-04-13T12:35:29.629Z,41.80
2023-04-13T12:40:31.625Z,42.30
2023-04-13T12:45:33.380Z,44.00
2023-04-13T12:50:35.296Z,43.40
2023-04-13T12:55:37.405Z,42.80
2023-04-13T13:00:39.300Z,42.80
2023-04-13T13:05:41.935Z,43.60
2023-04-13T13:10:43.929Z,43.60
2023-04-13T13:15:45.793Z,45.30
2023-04-13T13:20:49.310Z,46.60
2023-04-13T13:26:07.711Z,44.60
2023-04-13T13:31:13.544Z,44.30
2023-04-13T13:36:15.616Z,44.60
2023-04-13T13:41:17.507Z,46.30
2023-04-13T13:46:19.452Z,50.90
2023-04-13T13:51:21.525Z,51.20
2023-04-13T13:56:23.322Z,51.80
2023-04-13T14:01:25.229Z,52.50
2023-04-13T14:06:27.814Z,53.30
2023-04-13T14:11:29.972Z,54.50
2023-04-13T14:16:32.035Z,54.70
2023-04-13T14:21:34.067Z,54.60
2023-04-13T14:26:38.262Z,55.00
2023-04-13T14:31:40.141Z,53.60
2023-04-13T14:36:42.565Z,53.80
2023-04-13T14:41:44.984Z,52.30
2023-04-13T14:46:46.921Z,50.90
2023-04-13T14:51:48.633Z,50.10
2023-04-13T14:56:50.334Z,49.70
2023-04-13T15:01:52.189Z,47.80
2023-04-13T15:06:54.393Z,46.40
2023-04-13T15:11:56.442Z,45.30
2023-04-13T15:16:58.213Z,45.00
2023-04-13T15:22:00.150Z,44.20
2023-04-13T15:27:02.115Z,43.60
2023-04-13T15:32:04.086Z,43.80
2023-04-13T15:37:06.179Z,44.50
2023-04-13T15:42:08.126Z,45.00
2023-04-13T15:47:10.016Z,45.20
2023-04-13T15:52:11.899Z,45.40
2023-04-13T15:57:14.996Z,45.70
2023-04-13T16:02:17.022Z,46.00
2023-04-13T16:07:20.076Z,45.80
2023-04-13T16:12:33.143Z,46.00
2023-04-13T16:17:35.056Z,46.40
2023-04-13T16:22:37.584Z,46.70
2023-04-13T16:27:40.286Z,46.50
2023-04-13T16:32:43.306Z,46.50
2023-04-13T16:37:45.292Z,47.10
2023-04-13T16:42:47.094Z,46.60
2023-04-13T16:47:50.029Z,47.20
2023-04-13T16:52:51.842Z,47.10
2023-04-13T16:57:53.885Z,47.20
2023-04-13T17:02:55.953Z,47.60
2023-04-13T17:07:57.962Z,47.80
2023-04-13T17:12:59.673Z,47.70
2023-04-13T17:18:01.473Z,47.90
2023-04-13T17:23:03.280Z,48.40
2023-04-13T17:28:05.176Z,49.10
2023-04-13T17:33:07.107Z,49.40
2023-04-13T17:38:08.847Z,49.50
2023-04-13T17:43:10.870Z,49.20
2023-04-13T17:48:12.645Z,49.10
2023-04-13T17:53:14.325Z,49.20
2023-04-13T17:58:16.077Z,49.70
2023-04-13T18:03:18.059Z,50.30
2023-04-13T18:08:20.045Z,50.00
2023-04-13T18:13:22.134Z,50.30
2023-04-13T18:18:24.479Z,50.70
2023-04-13T18:23:26.291Z,50.60
2023-04-13T18:28:29.780Z,51.50
2023-04-13T18:33:31.853Z,52.10
2023-04-13T18:38:34.095Z,53.10
2023-04-13T18:43:35.912Z,53.80
2023-04-13T18:48:37.745Z,55.20
2023-04-13T18:53:39.476Z,57.30
2023-04-13T18:58:41.247Z,59.30
2023-04-13T19:03:44.179Z,60.00
2023-04-13T19:08:46.208Z,61.40
2023-04-13T19:13:48.181Z,67.20
2023-04-13T19:18:49.961Z,73.00
2023-04-13T19:23:51.802Z,77.10
2023-04-13T19:28:56.110Z,75.20
2023-04-13T19:33:57.922Z,80.10
2023-04-13T19:39:08.666Z,76.20
2023-04-13T19:44:10.377Z,74.60
2023-04-13T19:49:13.596Z,70.90
2023-04-13T19:54:15.297Z,70.40
2023-04-13T19:59:17.664Z,70.20
2023-04-13T20:04:19.745Z,71.20
2023-04-13T20:09:21.520Z,70.10
2023-04-13T20:14:23.382Z,71.80
2023-04-13T20:19:25.780Z,72.00
2023-04-13T20:24:27.593Z,72.00
2023-04-13T20:29:29.447Z,70.80
2023-04-13T20:34:31.243Z,69.90
2023-04-13T20:39:32.969Z,69.40
2023-04-13T20:44:38.230Z,67.80
2023-04-13T20:49:47.849Z,68.00
2023-04-13T20:54:51.040Z,67.20
2023-04-13T20:59:52.864Z,67.20
2023-04-13T21:04:56.582Z,67.40
2023-04-13T21:09:58.392Z,66.90
2023-04-13T21:15:00.187Z,66.80
2023-04-13T21:20:02.136Z,68.30
2023-04-13T21:25:05.122Z,68.90
2023-04-13T21:30:07.650Z,71.90
2023-04-13T21:35:10.046Z,73.90
2023-04-13T21:40:11.923Z,75.10
2023-04-13T21:45:13.707Z,72.00
2023-04-13T21:50:15.631Z,70.30
2023-04-13T21:55:20.364Z,73.50
2023-04-13T22:00:22.459Z,71.90
2023-04-13T22:05:24.226Z,70.70
2023-04-13T22:10:26.052Z,73.70
2023-04-13T22:15:27.933Z,71.60
2023-04-13T22:20:29.957Z,69.90
2023-04-13T22:25:31.710Z,72.10
2023-04-13T22:30:35.900Z,71.90
2023-04-13T22:35:37.637Z,71.80
2023-04-13T22:40:39.649Z,79.80
2023-04-13T22:45:41.443Z,81.70
2023-04-13T22:50:43.152Z,84.90
2023-04-13T22:55:45.093Z,90.00
2023-04-13T23:00:46.918Z,92.30
2023-04-13T23:05:49.066Z,91.90
2023-04-13T23:10:50.861Z,93.30
2023-04-13T23:16:00.602Z,94.80
2023-04-13T23:21:12.586Z,97.70
2023-04-13T23:26:14.578Z,97.80
2023-04-13T23:31:16.826Z,97.00
2023-04-13T23:36:18.981Z,92.10
2023-04-13T23:41:21.171Z,89.10
2023-04-13T23:46:23.678Z,85.00
2023-04-13T23:51:25.536Z,83.40
2023-04-13T23:56:27.456Z,82.70
